sensor_id;sensor_type;location;lat;lon;timestamp;P1;durP1;ratioP1;P2;durP2;ratioP2
68870;SDS011;55906;52.278;6.808;2022-08-19T00:00:05;7.07;;;5.18;;
68870;SDS011;55906;52.278;6.808;2022-08-19T00:02:35;5.97;;;4.57;;
68870;SDS011;55906;52.278;6.808;2022-08-19T00:05:02;7.95;;;5.88;;
68870;SDS011;55906;52.278;6.808;2022-08-19T00:07:31;7.80;;;5.70;;
68870;SDS011;55906;52.278;6.808;2022-08-19T00:09:58;7.15;;;5.35;;
68870;SDS011;55906;52.278;6.808;2022-08-19T00:12:24;6.75;;;5.22;;
68870;SDS011;55906;52.278;6.808;2022-08-19T00:14:51;6.18;;;4.60;;
68870;SDS011;55906;52.278;6.808;2022-08-19T00:17:19;7.05;;;5.32;;
68870;SDS011;55906;52.278;6.808;2022-08-19T00:19:45;7.27;;;5.30;;
68870;SDS011;55906;52.278;6.808;2022-08-19T00:22:12;6.35;;;5.13;;
68870;SDS011;55906;52.278;6.808;2022-08-19T00:24:41;7.05;;;5.35;;
68870;SDS011;55906;52.278;6.808;2022-08-19T00:27:08;6.53;;;4.53;;
68870;SDS011;55906;52.278;6.808;2022-08-19T00:29:35;6.93;;;5.28;;
68870;SDS011;55906;52.278;6.808;2022-08-19T00:32:02;7.23;;;5.93;;
68870;SDS011;55906;52.278;6.808;2022-08-19T00:34:29;6.82;;;4.88;;
68870;SDS011;55906;52.278;6.808;2022-08-19T00:36:56;6.20;;;4.63;;
68870;SDS011;55906;52.278;6.808;2022-08-19T00:39:24;8.68;;;5.65;;
68870;SDS011;55906;52.278;6.808;2022-08-19T00:41:52;6.97;;;4.90;;
68870;SDS011;55906;52.278;6.808;2022-08-19T00:44:21;7.43;;;5.47;;
68870;SDS011;55906;52.278;6.808;2022-08-19T00:46:49;7.00;;;5.10;;
68870;SDS011;55906;52.278;6.808;2022-08-19T00:49:19;7.63;;;5.13;;
68870;SDS011;55906;52.278;6.808;2022-08-19T00:51:54;6.90;;;5.30;;
68870;SDS011;55906;52.278;6.808;2022-08-19T00:54:25;7.28;;;5.78;;
68870;SDS011;55906;52.278;6.808;2022-08-19T00:56:54;6.43;;;4.83;;
68870;SDS011;55906;52.278;6.808;2022-08-19T00:59:20;6.13;;;4.90;;
68870;SDS011;55906;52.278;6.808;2022-08-19T01:01:47;7.78;;;5.50;;
68870;SDS011;55906;52.278;6.808;2022-08-19T01:04:14;7.30;;;5.13;;
68870;SDS011;55906;52.278;6.808;2022-08-19T01:06:40;6.78;;;5.38;;
68870;SDS011;55906;52.278;6.808;2022-08-19T01:09:08;6.20;;;4.73;;
68870;SDS011;55906;52.278;6.808;2022-08-19T01:11:36;7.68;;;4.97;;
68870;SDS011;55906;52.278;6.808;2022-08-19T01:14:07;7.03;;;5.22;;
68870;SDS011;55906;52.278;6.808;2022-08-19T01:16:37;6.43;;;4.57;;
68870;SDS011;55906;52.278;6.808;2022-08-19T01:19:08;6.15;;;4.80;;
68870;SDS011;55906;52.278;6.808;2022-08-19T01:21:43;6.80;;;4.80;;
68870;SDS011;55906;52.278;6.808;2022-08-19T01:24:17;6.53;;;4.75;;
68870;SDS011;55906;52.278;6.808;2022-08-19T01:26:44;6.90;;;4.93;;
68870;SDS011;55906;52.278;6.808;2022-08-19T01:29:13;6.25;;;4.10;;
68870;SDS011;55906;52.278;6.808;2022-08-19T01:31:39;6.53;;;4.30;;
68870;SDS011;55906;52.278;6.808;2022-08-19T01:34:06;6.40;;;4.53;;
68870;SDS011;55906;52.278;6.808;2022-08-19T01:36:34;6.30;;;4.43;;
68870;SDS011;55906;52.278;6.808;2022-08-19T01:39:05;6.60;;;5.20;;
68870;SDS011;55906;52.278;6.808;2022-08-19T01:41:35;6.65;;;5.03;;
68870;SDS011;55906;52.278;6.808;2022-08-19T01:44:04;6.00;;;4.47;;
68870;SDS011;55906;52.278;6.808;2022-08-19T01:46:32;5.60;;;3.83;;
68870;SDS011;55906;52.278;6.808;2022-08-19T01:48:58;6.78;;;4.70;;
68870;SDS011;55906;52.278;6.808;2022-08-19T01:51:26;6.00;;;4.45;;
68870;SDS011;55906;52.278;6.808;2022-08-19T01:53:53;6.28;;;4.28;;
68870;SDS011;55906;52.278;6.808;2022-08-19T01:59:43;6.33;;;4.57;;
68870;SDS011;55906;52.278;6.808;2022-08-19T02:02:11;6.80;;;4.25;;
68870;SDS011;55906;52.278;6.808;2022-08-19T02:04:38;7.88;;;4.63;;
68870;SDS011;55906;52.278;6.808;2022-08-19T02:07:05;5.50;;;3.95;;
68870;SDS011;55906;52.278;6.808;2022-08-19T02:09:33;6.07;;;4.65;;
68870;SDS011;55906;52.278;6.808;2022-08-19T02:12:00;6.87;;;4.73;;
68870;SDS011;55906;52.278;6.808;2022-08-19T02:14:27;5.78;;;4.10;;
68870;SDS011;55906;52.278;6.808;2022-08-19T02:16:58;6.18;;;4.35;;
68870;SDS011;55906;52.278;6.808;2022-08-19T02:19:24;6.18;;;4.20;;
68870;SDS011;55906;52.278;6.808;2022-08-19T02:21:51;6.47;;;4.80;;
68870;SDS011;55906;52.278;6.808;2022-08-19T02:24:17;6.13;;;4.47;;
68870;SDS011;55906;52.278;6.808;2022-08-19T02:26:44;5.75;;;4.20;;
68870;SDS011;55906;52.278;6.808;2022-08-19T02:29:11;6.57;;;4.82;;
68870;SDS011;55906;52.278;6.808;2022-08-19T02:31:37;6.07;;;4.10;;
68870;SDS011;55906;52.278;6.808;2022-08-19T02:34:05;6.15;;;4.88;;
68870;SDS011;55906;52.278;6.808;2022-08-19T02:36:32;6.10;;;4.20;;
68870;SDS011;55906;52.278;6.808;2022-08-19T02:38:58;6.72;;;4.60;;
68870;SDS011;55906;52.278;6.808;2022-08-19T02:41:25;6.22;;;4.85;;
68870;SDS011;55906;52.278;6.808;2022-08-19T02:43:56;6.10;;;4.60;;
68870;SDS011;55906;52.278;6.808;2022-08-19T02:46:25;6.57;;;4.30;;
68870;SDS011;55906;52.278;6.808;2022-08-19T02:48:55;5.95;;;4.45;;
68870;SDS011;55906;52.278;6.808;2022-08-19T02:51:27;6.43;;;4.70;;
68870;SDS011;55906;52.278;6.808;2022-08-19T02:53:55;8.63;;;4.32;;
68870;SDS011;55906;52.278;6.808;2022-08-19T02:56:23;6.30;;;4.60;;
68870;SDS011;55906;52.278;6.808;2022-08-19T02:58:52;5.60;;;4.03;;
68870;SDS011;55906;52.278;6.808;2022-08-19T03:01:20;5.82;;;4.20;;
68870;SDS011;55906;52.278;6.808;2022-08-19T03:03:48;6.03;;;4.32;;
68870;SDS011;55906;52.278;6.808;2022-08-19T03:06:15;6.57;;;4.53;;
68870;SDS011;55906;52.278;6.808;2022-08-19T03:08:44;6.45;;;5.18;;
68870;SDS011;55906;52.278;6.808;2022-08-19T03:11:13;6.03;;;3.90;;
68870;SDS011;55906;52.278;6.808;2022-08-19T03:13:40;6.43;;;3.97;;
68870;SDS011;55906;52.278;6.808;2022-08-19T03:16:08;6.38;;;4.35;;
68870;SDS011;55906;52.278;6.808;2022-08-19T03:18:35;6.85;;;4.63;;
68870;SDS011;55906;52.278;6.808;2022-08-19T03:21:01;6.47;;;4.18;;
68870;SDS011;55906;52.278;6.808;2022-08-19T03:23:29;6.23;;;4.30;;
68870;SDS011;55906;52.278;6.808;2022-08-19T03:25:57;6.05;;;4.63;;
68870;SDS011;55906;52.278;6.808;2022-08-19T03:28:23;6.22;;;4.22;;
68870;SDS011;55906;52.278;6.808;2022-08-19T03:30:56;6.13;;;4.13;;
68870;SDS011;55906;52.278;6.808;2022-08-19T03:33:25;5.88;;;4.07;;
68870;SDS011;55906;52.278;6.808;2022-08-19T03:35:59;5.67;;;4.47;;
68870;SDS011;55906;52.278;6.808;2022-08-19T03:38:28;6.07;;;4.30;;
68870;SDS011;55906;52.278;6.808;2022-08-19T03:40:57;6.45;;;4.88;;
68870;SDS011;55906;52.278;6.808;2022-08-19T03:43:24;5.60;;;4.05;;
68870;SDS011;55906;52.278;6.808;2022-08-19T03:45:59;6.53;;;5.10;;
68870;SDS011;55906;52.278;6.808;2022-08-19T03:48:26;8.00;;;4.80;;
68870;SDS011;55906;52.278;6.808;2022-08-19T03:50:52;7.35;;;5.20;;
68870;SDS011;55906;52.278;6.808;2022-08-19T03:53:19;6.85;;;4.82;;
68870;SDS011;55906;52.278;6.808;2022-08-19T03:55:45;6.88;;;5.07;;
68870;SDS011;55906;52.278;6.808;2022-08-19T03:58:13;6.70;;;4.85;;
68870;SDS011;55906;52.278;6.808;2022-08-19T04:00:41;6.73;;;4.97;;
68870;SDS011;55906;52.278;6.808;2022-08-19T04:03:08;6.78;;;4.43;;
68870;SDS011;55906;52.278;6.808;2022-08-19T04:05:34;7.00;;;5.40;;
68870;SDS011;55906;52.278;6.808;2022-08-19T04:08:02;6.55;;;4.72;;
68870;SDS011;55906;52.278;6.808;2022-08-19T04:10:30;7.07;;;5.03;;
68870;SDS011;55906;52.278;6.808;2022-08-19T04:12:57;7.47;;;5.87;;
68870;SDS011;55906;52.278;6.808;2022-08-19T04:15:25;6.95;;;5.43;;
68870;SDS011;55906;52.278;6.808;2022-08-19T04:17:53;6.93;;;5.10;;
68870;SDS011;55906;52.278;6.808;2022-08-19T04:20:20;7.47;;;5.35;;
68870;SDS011;55906;52.278;6.808;2022-08-19T04:22:47;7.80;;;4.85;;
68870;SDS011;55906;52.278;6.808;2022-08-19T04:25:13;7.50;;;5.20;;
68870;SDS011;55906;52.278;6.808;2022-08-19T04:27:40;6.40;;;4.97;;
68870;SDS011;55906;52.278;6.808;2022-08-19T04:30:12;7.28;;;5.43;;
68870;SDS011;55906;52.278;6.808;2022-08-19T04:32:40;6.95;;;4.65;;
68870;SDS011;55906;52.278;6.808;2022-08-19T04:35:08;6.93;;;5.10;;
68870;SDS011;55906;52.278;6.808;2022-08-19T04:37:35;6.60;;;4.87;;
68870;SDS011;55906;52.278;6.808;2022-08-19T04:40:03;7.18;;;5.28;;
68870;SDS011;55906;52.278;6.808;2022-08-19T04:42:49;6.20;;;4.32;;
68870;SDS011;55906;52.278;6.808;2022-08-19T04:45:16;6.25;;;4.18;;
68870;SDS011;55906;52.278;6.808;2022-08-19T04:47:43;7.18;;;4.93;;
68870;SDS011;55906;52.278;6.808;2022-08-19T04:50:10;6.93;;;5.17;;
68870;SDS011;55906;52.278;6.808;2022-08-19T04:52:37;7.13;;;4.55;;
68870;SDS011;55906;52.278;6.808;2022-08-19T04:55:07;6.57;;;4.50;;
68870;SDS011;55906;52.278;6.808;2022-08-19T04:57:34;7.68;;;4.72;;
68870;SDS011;55906;52.278;6.808;2022-08-19T05:00:05;6.82;;;4.78;;
68870;SDS011;55906;52.278;6.808;2022-08-19T05:02:33;6.30;;;4.30;;
68870;SDS011;55906;52.278;6.808;2022-08-19T05:05:02;6.78;;;4.45;;
68870;SDS011;55906;52.278;6.808;2022-08-19T05:07:31;6.35;;;4.45;;
68870;SDS011;55906;52.278;6.808;2022-08-19T05:09:58;6.05;;;4.50;;
68870;SDS011;55906;52.278;6.808;2022-08-19T05:12:24;6.18;;;4.60;;
68870;SDS011;55906;52.278;6.808;2022-08-19T05:14:52;6.50;;;4.53;;
68870;SDS011;55906;52.278;6.808;2022-08-19T05:17:19;6.10;;;4.45;;
68870;SDS011;55906;52.278;6.808;2022-08-19T05:19:45;6.68;;;5.18;;
68870;SDS011;55906;52.278;6.808;2022-08-19T05:22:31;6.20;;;4.75;;
68870;SDS011;55906;52.278;6.808;2022-08-19T05:24:59;7.10;;;4.82;;
68870;SDS011;55906;52.278;6.808;2022-08-19T05:27:32;7.80;;;5.77;;
68870;SDS011;55906;52.278;6.808;2022-08-19T05:29:59;7.47;;;5.47;;
68870;SDS011;55906;52.278;6.808;2022-08-19T05:32:26;8.27;;;5.50;;
68870;SDS011;55906;52.278;6.808;2022-08-19T05:34:53;9.07;;;6.93;;
68870;SDS011;55906;52.278;6.808;2022-08-19T05:37:20;8.57;;;6.43;;
68870;SDS011;55906;52.278;6.808;2022-08-19T05:39:48;9.63;;;7.27;;
68870;SDS011;55906;52.278;6.808;2022-08-19T05:42:15;9.70;;;7.72;;
68870;SDS011;55906;52.278;6.808;2022-08-19T05:44:42;9.07;;;6.82;;
68870;SDS011;55906;52.278;6.808;2022-08-19T05:47:10;9.80;;;6.35;;
68870;SDS011;55906;52.278;6.808;2022-08-19T05:49:38;8.77;;;6.38;;
68870;SDS011;55906;52.278;6.808;2022-08-19T05:52:05;9.37;;;6.93;;
68870;SDS011;55906;52.278;6.808;2022-08-19T05:54:36;9.20;;;6.07;;
68870;SDS011;55906;52.278;6.808;2022-08-19T05:57:07;9.63;;;7.25;;
68870;SDS011;55906;52.278;6.808;2022-08-19T05:59:33;9.05;;;6.45;;
68870;SDS011;55906;52.278;6.808;2022-08-19T06:02:01;9.82;;;7.25;;
68870;SDS011;55906;52.278;6.808;2022-08-19T06:04:29;9.40;;;6.23;;
68870;SDS011;55906;52.278;6.808;2022-08-19T06:06:56;9.13;;;6.88;;
68870;SDS011;55906;52.278;6.808;2022-08-19T06:09:23;10.20;;;7.35;;
68870;SDS011;55906;52.278;6.808;2022-08-19T06:11:51;13.35;;;9.18;;
68870;SDS011;55906;52.278;6.808;2022-08-19T06:14:22;12.18;;;8.90;;
68870;SDS011;55906;52.278;6.808;2022-08-19T06:16:51;12.67;;;8.43;;
68870;SDS011;55906;52.278;6.808;2022-08-19T06:19:19;11.60;;;8.18;;
68870;SDS011;55906;52.278;6.808;2022-08-19T06:21:48;16.25;;;11.57;;
68870;SDS011;55906;52.278;6.808;2022-08-19T06:24:16;11.77;;;8.48;;
68870;SDS011;55906;52.278;6.808;2022-08-19T06:26:46;17.02;;;11.63;;
68870;SDS011;55906;52.278;6.808;2022-08-19T06:29:14;16.33;;;11.30;;
68870;SDS011;55906;52.278;6.808;2022-08-19T06:31:45;16.35;;;11.30;;
68870;SDS011;55906;52.278;6.808;2022-08-19T06:34:14;18.23;;;11.90;;
68870;SDS011;55906;52.278;6.808;2022-08-19T06:36:41;20.23;;;13.15;;
68870;SDS011;55906;52.278;6.808;2022-08-19T06:39:11;19.67;;;14.43;;
68870;SDS011;55906;52.278;6.808;2022-08-19T06:41:40;22.07;;;14.90;;
68870;SDS011;55906;52.278;6.808;2022-08-19T06:44:08;21.58;;;13.02;;
68870;SDS011;55906;52.278;6.808;2022-08-19T06:46:35;24.17;;;15.00;;
68870;SDS011;55906;52.278;6.808;2022-08-19T06:49:03;22.20;;;14.02;;
68870;SDS011;55906;52.278;6.808;2022-08-19T06:51:30;21.35;;;14.02;;
68870;SDS011;55906;52.278;6.808;2022-08-19T06:53:57;20.10;;;13.60;;
68870;SDS011;55906;52.278;6.808;2022-08-19T06:56:25;25.65;;;15.57;;
68870;SDS011;55906;52.278;6.808;2022-08-19T06:58:56;24.58;;;15.30;;
68870;SDS011;55906;52.278;6.808;2022-08-19T07:01:22;23.10;;;15.60;;
68870;SDS011;55906;52.278;6.808;2022-08-19T07:03:49;22.65;;;15.02;;
68870;SDS011;55906;52.278;6.808;2022-08-19T07:06:18;18.97;;;13.13;;
68870;SDS011;55906;52.278;6.808;2022-08-19T07:08:45;17.60;;;12.48;;
68870;SDS011;55906;52.278;6.808;2022-08-19T07:11:14;22.17;;;14.40;;
68870;SDS011;55906;52.278;6.808;2022-08-19T07:13:43;19.42;;;12.65;;
68870;SDS011;55906;52.278;6.808;2022-08-19T07:16:12;17.13;;;12.65;;
68870;SDS011;55906;52.278;6.808;2022-08-19T07:18:41;17.17;;;10.53;;
68870;SDS011;55906;52.278;6.808;2022-08-19T07:21:08;15.07;;;10.15;;
68870;SDS011;55906;52.278;6.808;2022-08-19T07:23:38;18.63;;;13.00;;
68870;SDS011;55906;52.278;6.808;2022-08-19T07:26:06;16.90;;;11.23;;
68870;SDS011;55906;52.278;6.808;2022-08-19T07:28:34;16.80;;;10.57;;
68870;SDS011;55906;52.278;6.808;2022-08-19T07:31:04;16.00;;;10.83;;
68870;SDS011;55906;52.278;6.808;2022-08-19T07:33:31;16.67;;;12.13;;
68870;SDS011;55906;52.278;6.808;2022-08-19T07:36:02;15.35;;;10.63;;
68870;SDS011;55906;52.278;6.808;2022-08-19T07:38:29;13.25;;;9.88;;
68870;SDS011;55906;52.278;6.808;2022-08-19T07:40:57;13.63;;;8.73;;
68870;SDS011;55906;52.278;6.808;2022-08-19T07:43:24;14.37;;;9.90;;
68870;SDS011;55906;52.278;6.808;2022-08-19T07:45:51;13.00;;;9.50;;
68870;SDS011;55906;52.278;6.808;2022-08-19T07:48:21;15.95;;;10.20;;
68870;SDS011;55906;52.278;6.808;2022-08-19T07:50:50;11.35;;;8.18;;
68870;SDS011;55906;52.278;6.808;2022-08-19T07:53:19;14.32;;;10.98;;
68870;SDS011;55906;52.278;6.808;2022-08-19T07:55:45;15.33;;;9.03;;
68870;SDS011;55906;52.278;6.808;2022-08-19T07:58:15;11.15;;;8.30;;
68870;SDS011;55906;52.278;6.808;2022-08-19T08:00:43;12.50;;;9.13;;
68870;SDS011;55906;52.278;6.808;2022-08-19T08:03:12;14.95;;;9.77;;
68870;SDS011;55906;52.278;6.808;2022-08-19T08:05:40;13.77;;;9.00;;
68870;SDS011;55906;52.278;6.808;2022-08-19T08:08:25;13.87;;;9.57;;
68870;SDS011;55906;52.278;6.808;2022-08-19T08:11:10;13.38;;;9.75;;
68870;SDS011;55906;52.278;6.808;2022-08-19T08:13:38;13.93;;;10.20;;
68870;SDS011;55906;52.278;6.808;2022-08-19T08:16:06;13.50;;;9.38;;
68870;SDS011;55906;52.278;6.808;2022-08-19T08:18:32;11.10;;;8.98;;
68870;SDS011;55906;52.278;6.808;2022-08-19T08:21:06;13.13;;;8.93;;
68870;SDS011;55906;52.278;6.808;2022-08-19T08:23:33;12.10;;;8.57;;
68870;SDS011;55906;52.278;6.808;2022-08-19T08:26:00;10.52;;;7.78;;
68870;SDS011;55906;52.278;6.808;2022-08-19T08:28:31;10.02;;;7.50;;
68870;SDS011;55906;52.278;6.808;2022-08-19T08:30:59;10.02;;;8.00;;
68870;SDS011;55906;52.278;6.808;2022-08-19T08:33:26;13.17;;;10.00;;
68870;SDS011;55906;52.278;6.808;2022-08-19T08:35:54;14.82;;;9.73;;
68870;SDS011;55906;52.278;6.808;2022-08-19T08:38:21;16.48;;;12.32;;
68870;SDS011;55906;52.278;6.808;2022-08-19T08:40:49;12.45;;;9.90;;
68870;SDS011;55906;52.278;6.808;2022-08-19T08:43:23;14.77;;;11.27;;
68870;SDS011;55906;52.278;6.808;2022-08-19T08:45:54;15.63;;;11.20;;
68870;SDS011;55906;52.278;6.808;2022-08-19T08:48:30;14.35;;;11.15;;
68870;SDS011;55906;52.278;6.808;2022-08-19T08:51:04;12.73;;;9.07;;
68870;SDS011;55906;52.278;6.808;2022-08-19T08:53:33;13.45;;;10.20;;
68870;SDS011;55906;52.278;6.808;2022-08-19T08:56:03;11.45;;;8.32;;
68870;SDS011;55906;52.278;6.808;2022-08-19T08:58:35;10.77;;;7.50;;
68870;SDS011;55906;52.278;6.808;2022-08-19T09:01:08;11.85;;;9.60;;
68870;SDS011;55906;52.278;6.808;2022-08-19T09:03:37;12.85;;;9.20;;
68870;SDS011;55906;52.278;6.808;2022-08-19T09:06:06;12.68;;;10.13;;
68870;SDS011;55906;52.278;6.808;2022-08-19T09:08:40;7.72;;;5.90;;
68870;SDS011;55906;52.278;6.808;2022-08-19T09:11:15;11.83;;;8.07;;
68870;SDS011;55906;52.278;6.808;2022-08-19T09:13:53;10.27;;;7.75;;
68870;SDS011;55906;52.278;6.808;2022-08-19T09:16:38;12.00;;;8.75;;
68870;SDS011;55906;52.278;6.808;2022-08-19T09:19:07;12.15;;;8.85;;
68870;SDS011;55906;52.278;6.808;2022-08-19T09:21:35;9.02;;;7.07;;
68870;SDS011;55906;52.278;6.808;2022-08-19T09:24:03;7.23;;;5.60;;
68870;SDS011;55906;52.278;6.808;2022-08-19T09:26:31;10.25;;;7.43;;
68870;SDS011;55906;52.278;6.808;2022-08-19T09:28:59;10.65;;;7.03;;
68870;SDS011;55906;52.278;6.808;2022-08-19T09:31:28;6.80;;;5.70;;
68870;SDS011;55906;52.278;6.808;2022-08-19T09:33:56;8.95;;;7.05;;
68870;SDS011;55906;52.278;6.808;2022-08-19T09:36:25;9.03;;;5.60;;
68870;SDS011;55906;52.278;6.808;2022-08-19T09:38:54;8.63;;;6.32;;
68870;SDS011;55906;52.278;6.808;2022-08-19T09:41:22;7.95;;;5.22;;
68870;SDS011;55906;52.278;6.808;2022-08-19T09:43:51;7.72;;;5.22;;
68870;SDS011;55906;52.278;6.808;2022-08-19T09:46:21;6.95;;;4.90;;
68870;SDS011;55906;52.278;6.808;2022-08-19T09:48:48;8.63;;;5.60;;
68870;SDS011;55906;52.278;6.808;2022-08-19T09:51:19;8.90;;;5.05;;
68870;SDS011;55906;52.278;6.808;2022-08-19T09:53:49;7.80;;;5.05;;
68870;SDS011;55906;52.278;6.808;2022-08-19T09:56:18;9.18;;;6.00;;
68870;SDS011;55906;52.278;6.808;2022-08-19T09:58:48;6.35;;;4.53;;
68870;SDS011;55906;52.278;6.808;2022-08-19T10:01:16;7.83;;;5.90;;
68870;SDS011;55906;52.278;6.808;2022-08-19T10:03:46;7.75;;;5.72;;
68870;SDS011;55906;52.278;6.808;2022-08-19T10:06:13;13.70;;;7.90;;
68870;SDS011;55906;52.278;6.808;2022-08-19T10:08:39;8.37;;;5.63;;
68870;SDS011;55906;52.278;6.808;2022-08-19T10:11:07;6.60;;;4.70;;
68870;SDS011;55906;52.278;6.808;2022-08-19T10:13:36;8.27;;;5.15;;
68870;SDS011;55906;52.278;6.808;2022-08-19T10:16:04;7.97;;;5.88;;
68870;SDS011;55906;52.278;6.808;2022-08-19T10:18:32;8.93;;;6.30;;
68870;SDS011;55906;52.278;6.808;2022-08-19T10:21:03;8.73;;;5.32;;
68870;SDS011;55906;52.278;6.808;2022-08-19T10:23:33;8.50;;;5.60;;
68870;SDS011;55906;52.278;6.808;2022-08-19T10:26:01;6.72;;;4.90;;
68870;SDS011;55906;52.278;6.808;2022-08-19T10:28:30;7.75;;;5.07;;
68870;SDS011;55906;52.278;6.808;2022-08-19T10:30:57;7.68;;;5.60;;
68870;SDS011;55906;52.278;6.808;2022-08-19T10:33:24;7.40;;;5.32;;
68870;SDS011;55906;52.278;6.808;2022-08-19T10:35:57;9.63;;;7.60;;
68870;SDS011;55906;52.278;6.808;2022-08-19T10:38:25;11.05;;;7.07;;
68870;SDS011;55906;52.278;6.808;2022-08-19T10:40:53;9.45;;;6.97;;
68870;SDS011;55906;52.278;6.808;2022-08-19T10:43:19;10.20;;;6.70;;
68870;SDS011;55906;52.278;6.808;2022-08-19T10:45:49;9.63;;;6.72;;
68870;SDS011;55906;52.278;6.808;2022-08-19T10:48:18;9.07;;;5.73;;
68870;SDS011;55906;52.278;6.808;2022-08-19T10:50:45;10.25;;;7.40;;
68870;SDS011;55906;52.278;6.808;2022-08-19T10:53:29;9.23;;;6.10;;
68870;SDS011;55906;52.278;6.808;2022-08-19T10:55:56;9.35;;;5.82;;
68870;SDS011;55906;52.278;6.808;2022-08-19T10:58:40;8.55;;;6.43;;
68870;SDS011;55906;52.278;6.808;2022-08-19T11:01:08;9.23;;;5.80;;
68870;SDS011;55906;52.278;6.808;2022-08-19T11:03:34;10.95;;;7.60;;
68870;SDS011;55906;52.278;6.808;2022-08-19T11:06:02;10.45;;;5.32;;
68870;SDS011;55906;52.278;6.808;2022-08-19T11:08:30;6.72;;;4.80;;
68870;SDS011;55906;52.278;6.808;2022-08-19T11:10:58;6.68;;;5.13;;
68870;SDS011;55906;52.278;6.808;2022-08-19T11:13:28;8.53;;;5.43;;
68870;SDS011;55906;52.278;6.808;2022-08-19T11:15:58;5.78;;;4.18;;
68870;SDS011;55906;52.278;6.808;2022-08-19T11:18:28;8.77;;;6.90;;
68870;SDS011;55906;52.278;6.808;2022-08-19T11:20:54;8.93;;;6.25;;
68870;SDS011;55906;52.278;6.808;2022-08-19T11:23:30;8.75;;;5.15;;
68870;SDS011;55906;52.278;6.808;2022-08-19T11:25:57;10.17;;;7.23;;
68870;SDS011;55906;52.278;6.808;2022-08-19T11:28:24;9.68;;;6.15;;
68870;SDS011;55906;52.278;6.808;2022-08-19T11:30:51;7.80;;;6.18;;
68870;SDS011;55906;52.278;6.808;2022-08-19T11:33:17;7.80;;;6.00;;
68870;SDS011;55906;52.278;6.808;2022-08-19T11:35:45;7.47;;;6.15;;
68870;SDS011;55906;52.278;6.808;2022-08-19T11:38:12;9.23;;;6.57;;
68870;SDS011;55906;52.278;6.808;2022-08-19T11:40:39;12.43;;;5.90;;
68870;SDS011;55906;52.278;6.808;2022-08-19T11:43:07;7.30;;;5.05;;
68870;SDS011;55906;52.278;6.808;2022-08-19T11:45:34;7.03;;;4.63;;
68870;SDS011;55906;52.278;6.808;2022-08-19T11:48:02;7.10;;;4.70;;
68870;SDS011;55906;52.278;6.808;2022-08-19T11:50:28;7.13;;;4.33;;
68870;SDS011;55906;52.278;6.808;2022-08-19T11:52:56;6.85;;;5.10;;
68870;SDS011;55906;52.278;6.808;2022-08-19T11:55:23;7.05;;;4.25;;
68870;SDS011;55906;52.278;6.808;2022-08-19T11:57:50;7.07;;;4.47;;
68870;SDS011;55906;52.278;6.808;2022-08-19T12:00:16;5.55;;;3.90;;
68870;SDS011;55906;52.278;6.808;2022-08-19T12:02:43;6.50;;;3.90;;
68870;SDS011;55906;52.278;6.808;2022-08-19T12:05:10;11.25;;;4.90;;
68870;SDS011;55906;52.278;6.808;2022-08-19T12:07:36;6.90;;;4.20;;
68870;SDS011;55906;52.278;6.808;2022-08-19T12:10:05;6.40;;;3.90;;
68870;SDS011;55906;52.278;6.808;2022-08-19T12:12:32;6.97;;;4.00;;
68870;SDS011;55906;52.278;6.808;2022-08-19T12:14:58;6.77;;;3.43;;
68870;SDS011;55906;52.278;6.808;2022-08-19T12:17:25;6.43;;;4.22;;
68870;SDS011;55906;52.278;6.808;2022-08-19T12:19:53;5.82;;;3.50;;
68870;SDS011;55906;52.278;6.808;2022-08-19T12:22:20;6.45;;;3.45;;
68870;SDS011;55906;52.278;6.808;2022-08-19T12:24:46;5.57;;;3.40;;
68870;SDS011;55906;52.278;6.808;2022-08-19T12:27:17;6.00;;;3.50;;
68870;SDS011;55906;52.278;6.808;2022-08-19T12:29:43;5.32;;;3.53;;
68870;SDS011;55906;52.278;6.808;2022-08-19T12:32:10;7.07;;;3.42;;
68870;SDS011;55906;52.278;6.808;2022-08-19T12:34:37;7.07;;;4.85;;
68870;SDS011;55906;52.278;6.808;2022-08-19T12:37:04;7.35;;;4.00;;
68870;SDS011;55906;52.278;6.808;2022-08-19T12:39:34;7.00;;;4.00;;
68870;SDS011;55906;52.278;6.808;2022-08-19T12:42:02;5.65;;;3.80;;
68870;SDS011;55906;52.278;6.808;2022-08-19T12:44:30;6.82;;;4.28;;
68870;SDS011;55906;52.278;6.808;2022-08-19T12:46:57;6.13;;;3.97;;
68870;SDS011;55906;52.278;6.808;2022-08-19T12:49:24;5.32;;;3.42;;
68870;SDS011;55906;52.278;6.808;2022-08-19T12:51:53;7.63;;;4.20;;
68870;SDS011;55906;52.278;6.808;2022-08-19T12:54:19;5.97;;;3.58;;
68870;SDS011;55906;52.278;6.808;2022-08-19T12:56:46;6.35;;;3.70;;
68870;SDS011;55906;52.278;6.808;2022-08-19T12:59:13;6.18;;;3.70;;
68870;SDS011;55906;52.278;6.808;2022-08-19T13:01:43;6.75;;;3.95;;
68870;SDS011;55906;52.278;6.808;2022-08-19T13:04:10;6.00;;;3.83;;
68870;SDS011;55906;52.278;6.808;2022-08-19T13:06:36;6.85;;;3.47;;
68870;SDS011;55906;52.278;6.808;2022-08-19T13:09:03;5.15;;;3.60;;
68870;SDS011;55906;52.278;6.808;2022-08-19T13:11:31;6.18;;;3.28;;
68870;SDS011;55906;52.278;6.808;2022-08-19T13:13:59;5.68;;;3.75;;
68870;SDS011;55906;52.278;6.808;2022-08-19T13:16:27;6.57;;;4.07;;
68870;SDS011;55906;52.278;6.808;2022-08-19T13:18:55;6.68;;;4.20;;
68870;SDS011;55906;52.278;6.808;2022-08-19T13:21:24;6.88;;;4.00;;
68870;SDS011;55906;52.278;6.808;2022-08-19T13:23:52;4.60;;;3.00;;
68870;SDS011;55906;52.278;6.808;2022-08-19T13:26:19;5.45;;;3.45;;
68870;SDS011;55906;52.278;6.808;2022-08-19T13:28:46;5.83;;;3.33;;
68870;SDS011;55906;52.278;6.808;2022-08-19T13:31:38;7.63;;;4.22;;
68870;SDS011;55906;52.278;6.808;2022-08-19T13:34:30;6.10;;;4.18;;
68870;SDS011;55906;52.278;6.808;2022-08-19T13:36:59;5.78;;;4.13;;
68870;SDS011;55906;52.278;6.808;2022-08-19T13:39:28;5.65;;;3.58;;
68870;SDS011;55906;52.278;6.808;2022-08-19T13:41:54;5.53;;;3.23;;
68870;SDS011;55906;52.278;6.808;2022-08-19T13:44:22;4.97;;;3.25;;
68870;SDS011;55906;52.278;6.808;2022-08-19T13:46:49;4.68;;;3.15;;
68870;SDS011;55906;52.278;6.808;2022-08-19T13:49:18;8.77;;;4.43;;
68870;SDS011;55906;52.278;6.808;2022-08-19T13:51:46;6.75;;;4.47;;
68870;SDS011;55906;52.278;6.808;2022-08-19T13:54:13;6.83;;;4.43;;
68870;SDS011;55906;52.278;6.808;2022-08-19T13:56:40;6.93;;;4.45;;
68870;SDS011;55906;52.278;6.808;2022-08-19T13:59:12;6.53;;;4.40;;
68870;SDS011;55906;52.278;6.808;2022-08-19T14:02:02;5.72;;;3.75;;
68870;SDS011;55906;52.278;6.808;2022-08-19T14:04:32;6.22;;;3.83;;
68870;SDS011;55906;52.278;6.808;2022-08-19T14:07:00;7.33;;;4.40;;
68870;SDS011;55906;52.278;6.808;2022-08-19T14:09:26;6.55;;;4.45;;
68870;SDS011;55906;52.278;6.808;2022-08-19T14:11:56;7.78;;;4.43;;
68870;SDS011;55906;52.278;6.808;2022-08-19T14:14:22;7.57;;;4.72;;
68870;SDS011;55906;52.278;6.808;2022-08-19T14:16:50;8.50;;;4.60;;
68870;SDS011;55906;52.278;6.808;2022-08-19T14:19:17;8.17;;;4.70;;
68870;SDS011;55906;52.278;6.808;2022-08-19T14:21:44;7.78;;;4.20;;
68870;SDS011;55906;52.278;6.808;2022-08-19T14:24:12;6.57;;;3.95;;
68870;SDS011;55906;52.278;6.808;2022-08-19T14:26:39;7.95;;;4.70;;
68870;SDS011;55906;52.278;6.808;2022-08-19T14:29:06;10.38;;;5.63;;
68870;SDS011;55906;52.278;6.808;2022-08-19T14:31:32;7.10;;;4.17;;
68870;SDS011;55906;52.278;6.808;2022-08-19T14:33:59;8.27;;;4.60;;
68870;SDS011;55906;52.278;6.808;2022-08-19T14:36:25;6.68;;;4.47;;
68870;SDS011;55906;52.278;6.808;2022-08-19T14:38:52;6.45;;;4.00;;
68870;SDS011;55906;52.278;6.808;2022-08-19T14:41:21;7.35;;;4.30;;
68870;SDS011;55906;52.278;6.808;2022-08-19T14:43:49;7.13;;;4.40;;
68870;SDS011;55906;52.278;6.808;2022-08-19T14:46:18;6.53;;;4.00;;
68870;SDS011;55906;52.278;6.808;2022-08-19T14:48:46;7.43;;;4.60;;
68870;SDS011;55906;52.278;6.808;2022-08-19T14:51:14;6.28;;;3.53;;
68870;SDS011;55906;52.278;6.808;2022-08-19T14:53:41;5.13;;;3.28;;